createdAt,value
2017-09-05T00:00:24.479Z,4.50
2017-09-05T00:02:54.355Z,4.23
2017-09-05T00:05:22.024Z,4.23
2017-09-05T00:11:09.340Z,3.90
2017-09-05T00:13:41.440Z,4.23
2017-09-05T00:19:14.264Z,5.03
2017-09-05T00:22:01.392Z,4.33
2017-09-05T00:24:30.619Z,4.40
2017-09-05T00:26:58.311Z,4.77
2017-09-05T00:29:26.810Z,4.13
2017-09-05T00:31:54.498Z,4.30
2017-09-05T00:34:23.897Z,5.33
2017-09-05T00:36:52.448Z,4.33
2017-09-05T00:39:20.954Z,4.80
2017-09-05T00:41:48.723Z,5.40
2017-09-05T00:44:17.145Z,4.43
2017-09-05T00:46:44.838Z,4.77
2017-09-05T00:49:12.521Z,4.50
2017-09-05T00:51:40.218Z,5.20
2017-09-05T00:54:07.966Z,5.73
2017-09-05T00:56:35.598Z,5.00
2017-09-05T00:59:03.291Z,6.03
2017-09-05T01:01:32.495Z,5.60
2017-09-05T01:04:02.631Z,5.57
2017-09-05T01:06:30.560Z,5.30
2017-09-05T01:08:58.284Z,5.30
2017-09-05T01:11:25.968Z,6.10
2017-09-05T01:13:53.671Z,5.10
2017-09-05T01:16:21.341Z,5.13
2017-09-05T01:18:49.283Z,4.93
2017-09-05T01:21:17.999Z,4.90
2017-09-05T01:23:45.654Z,5.47
2017-09-05T01:26:13.517Z,5.60
2017-09-05T01:28:41.152Z,5.13
2017-09-05T01:31:08.855Z,5.20
2017-09-05T01:33:36.616Z,5.23
2017-09-05T01:36:04.470Z,5.60
2017-09-05T01:38:32.188Z,5.63
2017-09-05T01:40:59.883Z,5.03
2017-09-05T01:43:27.663Z,5.40
2017-09-05T01:45:55.448Z,5.03
2017-09-05T01:48:23.307Z,5.40
2017-09-05T01:50:52.525Z,6.00
2017-09-05T01:53:39.216Z,4.80
2017-09-05T01:56:06.904Z,5.57
2017-09-05T01:58:34.745Z,5.17
2017-09-05T02:01:02.609Z,5.40
2017-09-05T02:03:30.244Z,4.87
2017-09-05T02:05:58.032Z,4.40
2017-09-05T02:08:25.813Z,4.93
2017-09-05T02:10:53.680Z,5.27
2017-09-05T02:13:21.523Z,5.03
2017-09-05T02:15:49.156Z,5.20
2017-09-05T02:18:17.984Z,4.37
2017-09-05T02:20:47.412Z,6.20
2017-09-05T02:23:15.967Z,4.80
2017-09-05T02:25:43.660Z,5.13
2017-09-05T02:28:12.244Z,5.30
2017-09-05T02:30:41.530Z,5.17
2017-09-05T02:33:09.255Z,4.93
2017-09-05T02:35:36.945Z,5.73
2017-09-05T02:38:04.624Z,5.03
2017-09-05T02:40:32.322Z,5.60
2017-09-05T02:43:00.019Z,4.90
2017-09-05T02:45:27.798Z,5.17
2017-09-05T02:47:55.476Z,5.20
2017-09-05T02:50:24.080Z,4.97
2017-09-05T02:52:51.921Z,5.33
2017-09-05T02:55:19.632Z,5.37
2017-09-05T02:57:47.389Z,5.53
2017-09-05T03:00:15.019Z,4.77
2017-09-05T03:02:42.791Z,4.93
2017-09-05T03:05:11.462Z,4.87
2017-09-05T03:07:39.143Z,4.63
2017-09-05T03:10:06.776Z,4.73
2017-09-05T03:12:34.556Z,5.23
2017-09-05T03:15:03.149Z,4.73
2017-09-05T03:17:30.923Z,5.80
2017-09-05T03:19:59.164Z,5.87
2017-09-05T03:22:26.821Z,4.93
2017-09-05T03:24:54.512Z,4.87
2017-09-05T03:27:22.195Z,5.50
2017-09-05T03:29:50.600Z,5.23
2017-09-05T03:32:18.400Z,5.20
2017-09-05T03:34:46.170Z,4.83
2017-09-05T03:37:13.827Z,5.63
2017-09-05T03:39:41.514Z,5.07
2017-09-05T03:42:09.288Z,5.27
2017-09-05T03:44:37.054Z,5.03
2017-09-05T03:47:04.919Z,5.30
2017-09-05T03:49:32.790Z,4.80
2017-09-05T03:52:00.424Z,5.30
2017-09-05T03:54:28.126Z,4.57
2017-09-05T03:56:56.699Z,4.80
2017-09-05T03:59:25.292Z,4.80
2017-09-05T04:01:52.995Z,5.10
2017-09-05T04:04:21.123Z,5.50
2017-09-05T04:06:49.629Z,5.20
2017-09-05T04:09:18.219Z,5.33
2017-09-05T04:11:46.149Z,5.50
2017-09-05T04:14:14.665Z,5.40
2017-09-05T04:16:44.525Z,5.27
2017-09-05T04:19:12.313Z,4.80
2017-09-05T04:21:40.004Z,5.20
2017-09-05T04:24:07.937Z,5.60
2017-09-05T04:26:35.652Z,5.10
2017-09-05T04:29:03.489Z,4.93
2017-09-05T04:31:31.113Z,5.37
2017-09-05T04:33:58.812Z,5.30
2017-09-05T04:36:26.504Z,5.33
2017-09-05T04:38:54.346Z,5.33
2017-09-05T04:41:22.310Z,5.50
2017-09-05T04:43:49.947Z,5.70
2017-09-05T04:46:17.635Z,5.33
2017-09-05T04:48:46.226Z,5.47
2017-09-05T04:51:14.001Z,4.80
2017-09-05T04:53:41.862Z,5.60
2017-09-05T04:56:09.730Z,5.23
2017-09-05T04:58:37.442Z,5.80
2017-09-05T05:01:05.134Z,4.73
2017-09-05T05:03:32.917Z,5.83
2017-09-05T05:06:01.342Z,4.83
2017-09-05T05:08:29.037Z,5.47
2017-09-05T05:10:57.700Z,5.37
2017-09-05T05:13:25.479Z,6.00
2017-09-05T05:15:53.159Z,5.73
2017-09-05T05:18:20.771Z,5.13
2017-09-05T05:20:48.385Z,5.27
2017-09-05T05:23:16.030Z,5.00
2017-09-05T05:25:43.684Z,6.40
2017-09-05T05:28:11.332Z,6.20
2017-09-05T05:30:38.937Z,5.60
2017-09-05T05:33:06.533Z,5.60
2017-09-05T05:35:34.158Z,5.70
2017-09-05T05:38:02.572Z,7.67
2017-09-05T05:40:30.188Z,7.00
2017-09-05T05:42:57.895Z,7.43
2017-09-05T05:45:25.530Z,6.57
2017-09-05T05:47:53.134Z,7.07
2017-09-05T05:50:20.828Z,6.20
2017-09-05T05:52:48.470Z,6.43
2017-09-05T05:55:16.078Z,6.47
2017-09-05T05:57:43.814Z,6.30
2017-09-05T06:00:11.451Z,6.87
2017-09-05T06:02:40.550Z,7.97
2017-09-05T06:05:09.539Z,7.83
2017-09-05T06:07:38.572Z,8.27
2017-09-05T06:10:07.667Z,7.27
2017-09-05T06:12:36.623Z,10.77
2017-09-05T06:15:05.663Z,10.63
2017-09-05T06:17:34.615Z,8.80
2017-09-05T06:20:03.596Z,10.03
2017-09-05T06:22:32.543Z,9.97
2017-09-05T06:25:01.500Z,11.13
2017-09-05T06:27:30.451Z,12.80
2017-09-05T06:29:59.402Z,11.87
2017-09-05T06:32:28.360Z,11.10
2017-09-05T06:34:57.414Z,10.10
2017-09-05T06:37:26.362Z,9.53
2017-09-05T06:39:56.043Z,8.97
2017-09-05T06:42:25.112Z,9.13
2017-09-05T06:44:54.205Z,8.73
2017-09-05T06:47:23.154Z,8.80
2017-09-05T06:49:52.191Z,8.30
2017-09-05T06:52:21.184Z,7.83
2017-09-05T06:54:50.179Z,7.60
2017-09-05T06:57:19.151Z,8.13
2017-09-05T06:59:48.166Z,7.60
2017-09-05T07:02:17.112Z,7.70
2017-09-05T07:04:46.096Z,8.30
2017-09-05T07:07:15.787Z,7.00
2017-09-05T07:09:44.865Z,6.93
2017-09-05T07:12:13.814Z,7.13
2017-09-05T07:14:42.774Z,7.43
2017-09-05T07:17:11.723Z,6.70
2017-09-05T07:19:40.843Z,6.37
2017-09-05T07:22:09.822Z,6.17
2017-09-05T07:24:38.772Z,6.30
2017-09-05T07:27:08.391Z,6.80
2017-09-05T07:29:37.341Z,5.93
2017-09-05T07:32:06.320Z,5.80
2017-09-05T07:34:35.267Z,5.90
2017-09-05T07:37:04.320Z,5.13
2017-09-05T07:39:33.316Z,5.73
2017-09-05T07:42:02.306Z,5.57
2017-09-05T07:44:31.354Z,5.50
2017-09-05T07:47:00.405Z,4.87
2017-09-05T07:49:29.351Z,5.90
2017-09-05T07:51:58.392Z,5.10
2017-09-05T07:54:27.385Z,5.97
2017-09-05T07:56:56.377Z,4.67
2017-09-05T07:59:25.328Z,4.80
2017-09-05T08:01:54.463Z,4.10
2017-09-05T08:04:23.459Z,4.20
2017-09-05T08:06:52.580Z,4.20
2017-09-05T08:09:21.525Z,4.83
2017-09-05T08:11:50.473Z,3.60
2017-09-05T08:14:19.453Z,4.20
2017-09-05T08:16:48.428Z,3.70
2017-09-05T08:19:17.417Z,4.10
2017-09-05T08:21:46.367Z,3.97
2017-09-05T08:24:15.316Z,4.00
2017-09-05T08:26:44.307Z,4.50
2017-09-05T08:29:13.263Z,4.70
2017-09-05T08:31:42.196Z,4.00
2017-09-05T08:34:11.139Z,4.07
2017-09-05T08:36:40.081Z,4.00
2017-09-05T08:39:09.071Z,3.60
2017-09-05T08:41:38.046Z,4.03
2017-09-05T08:44:07.064Z,3.30
2017-09-05T08:46:36.055Z,4.10
2017-09-05T08:49:05.003Z,3.80
2017-09-05T08:51:34.070Z,4.10
2017-09-05T08:54:03.046Z,4.00
2017-09-05T08:56:31.999Z,3.67
2017-09-05T08:59:00.960Z,3.93
2017-09-05T09:01:29.896Z,3.87
2017-09-05T09:03:58.847Z,3.80
2017-09-05T09:06:27.908Z,3.77
2017-09-05T09:08:56.900Z,3.47
2017-09-05T09:11:25.851Z,3.80
2017-09-05T09:13:56.073Z,3.57
2017-09-05T09:16:25.032Z,3.30
2017-09-05T09:18:54.023Z,3.43
2017-09-05T09:21:23.879Z,3.83
2017-09-05T09:23:52.871Z,3.43
2017-09-05T09:26:21.819Z,3.50
2017-09-05T09:28:50.780Z,4.33
2017-09-05T09:31:19.818Z,4.07
2017-09-05T09:33:48.778Z,3.20
2017-09-05T09:36:17.808Z,3.90
2017-09-05T09:38:46.844Z,3.80
2017-09-05T09:41:15.828Z,3.90
2017-09-05T09:43:44.997Z,3.37
2017-09-05T09:46:13.956Z,3.63
2017-09-05T09:48:44.247Z,3.17
2017-09-05T09:51:13.311Z,4.10
2017-09-05T09:53:42.311Z,3.30
2017-09-05T09:56:11.311Z,3.93
2017-09-05T09:58:40.292Z,3.70
2017-09-05T10:01:09.239Z,3.77
2017-09-05T10:03:38.216Z,3.47
2017-09-05T10:06:07.297Z,3.40
2017-09-05T10:08:36.276Z,3.63
2017-09-05T10:11:05.491Z,4.23
2017-09-05T10:13:34.463Z,4.00
2017-09-05T10:16:03.461Z,3.30
2017-09-05T10:18:32.451Z,3.90
2017-09-05T10:21:01.552Z,3.57
2017-09-05T10:23:30.535Z,3.83
2017-09-05T10:25:59.484Z,4.07
2017-09-05T10:28:28.532Z,4.67
2017-09-05T10:30:57.529Z,3.93
2017-09-05T10:33:27.347Z,4.50
2017-09-05T10:35:56.295Z,4.23
2017-09-05T10:38:25.336Z,3.87
2017-09-05T10:40:54.396Z,5.10
2017-09-05T10:43:24.674Z,4.80
2017-09-05T10:45:53.739Z,4.27
2017-09-05T10:48:22.732Z,4.20
2017-09-05T10:50:51.712Z,3.70
2017-09-05T10:53:22.793Z,4.83
2017-09-05T10:55:53.171Z,4.13
2017-09-05T10:58:22.176Z,4.47
2017-09-05T11:00:51.142Z,4.63
2017-09-05T11:03:20.125Z,4.37
2017-09-05T11:05:49.064Z,5.83
2017-09-05T11:08:18.252Z,4.30
2017-09-05T11:10:47.197Z,4.10
2017-09-05T11:13:16.148Z,4.60
2017-09-05T11:15:45.141Z,3.97
2017-09-05T11:18:14.091Z,4.00
2017-09-05T11:20:43.032Z,5.17
2017-09-05T11:23:12.704Z,5.03
2017-09-05T11:25:41.687Z,4.83
2017-09-05T11:28:12.197Z,4.70
2017-09-05T11:30:41.151Z,5.03
2017-09-05T11:33:10.128Z,4.30
2017-09-05T11:35:39.084Z,5.13
2017-09-05T11:38:08.263Z,4.70
2017-09-05T11:40:37.212Z,4.80
2017-09-05T11:43:08.372Z,4.60
2017-09-05T11:45:37.328Z,4.63
2017-09-05T11:48:06.310Z,4.63
2017-09-05T11:50:35.356Z,4.83
2017-09-05T11:53:04.316Z,4.90
2017-09-05T11:55:33.266Z,4.87
2017-09-05T11:58:02.211Z,4.07
2017-09-05T12:00:31.160Z,4.67
2017-09-05T12:03:00.110Z,5.07
2017-09-05T12:05:29.055Z,4.97
2017-09-05T12:07:58.000Z,4.50
2017-09-05T12:10:26.947Z,4.57
2017-09-05T12:12:55.892Z,4.40
2017-09-05T12:15:24.868Z,4.03
2017-09-05T12:17:53.815Z,5.60
2017-09-05T12:20:22.185Z,4.33
2017-09-05T12:22:49.794Z,4.50
2017-09-05T12:25:17.397Z,4.47
2017-09-05T12:27:45.000Z,4.47
2017-09-05T12:30:13.289Z,3.90
2017-09-05T12:32:40.936Z,4.97
2017-09-05T12:35:08.540Z,4.47
2017-09-05T12:37:36.141Z,4.30
2017-09-05T12:40:03.740Z,4.10
2017-09-05T12:42:31.335Z,4.33
2017-09-05T12:44:58.973Z,4.47
2017-09-05T12:47:26.572Z,4.77
2017-09-05T12:49:55.515Z,5.40
2017-09-05T12:52:24.460Z,5.47
2017-09-05T12:54:53.399Z,6.07
2017-09-05T12:57:22.579Z,4.23
2017-09-05T12:59:51.522Z,5.13
2017-09-05T13:02:20.464Z,4.30
2017-09-05T13:04:49.411Z,5.07
2017-09-05T13:07:18.383Z,4.83
2017-09-05T13:09:47.320Z,5.70
2017-09-05T13:12:15.685Z,5.30
2017-09-05T13:14:43.294Z,6.40
2017-09-05T13:17:10.893Z,5.20
2017-09-05T13:19:38.672Z,4.17
2017-09-05T13:22:06.269Z,5.73
2017-09-05T13:24:33.905Z,6.10
2017-09-05T13:27:01.512Z,5.57
2017-09-05T13:29:29.121Z,5.00
2017-09-05T13:31:56.718Z,4.50
2017-09-05T13:34:24.320Z,4.67
2017-09-05T13:36:52.042Z,4.30
2017-09-05T13:39:19.640Z,4.33
2017-09-05T13:41:47.248Z,4.60
2017-09-05T13:44:14.845Z,3.80
2017-09-05T13:46:42.440Z,4.30
2017-09-05T13:49:10.049Z,5.03
2017-09-05T13:51:37.696Z,4.50
2017-09-05T13:54:05.302Z,4.23
2017-09-05T13:56:32.900Z,4.10
2017-09-05T13:59:00.509Z,4.10
2017-09-05T14:01:28.109Z,4.20
2017-09-05T14:03:55.788Z,4.80
2017-09-05T14:06:23.393Z,4.40
2017-09-05T14:08:51.000Z,5.00
2017-09-05T14:11:18.813Z,5.10
2017-09-05T14:13:46.412Z,5.20
2017-09-05T14:16:14.008Z,4.83
2017-09-05T14:18:41.624Z,5.17
2017-09-05T14:21:09.233Z,3.90
2017-09-05T14:23:36.839Z,3.90
2017-09-05T14:26:04.444Z,4.00
2017-09-05T14:28:32.078Z,4.67
2017-09-05T14:30:59.672Z,4.20
2017-09-05T14:33:27.267Z,3.80
2017-09-05T14:35:54.863Z,4.70
2017-09-05T14:38:22.460Z,4.20
2017-09-05T14:40:50.061Z,4.37
2017-09-05T14:43:17.697Z,4.57
2017-09-05T14:45:45.318Z,4.53
2017-09-05T14:48:12.963Z,4.30
2017-09-05T14:50:40.559Z,3.70
2017-09-05T14:53:08.160Z,4.00
2017-09-05T14:55:35.798Z,4.13
2017-09-05T14:58:03.400Z,4.17
2017-09-05T15:00:31.160Z,3.87
2017-09-05T15:02:58.795Z,4.30
2017-09-05T15:05:26.388Z,4.00
2017-09-05T15:07:53.988Z,3.50
2017-09-05T15:10:22.421Z,3.43
2017-09-05T15:12:50.027Z,6.97
2017-09-05T15:15:17.624Z,3.83
2017-09-05T15:17:45.231Z,4.10
2017-09-05T15:20:12.825Z,3.97
2017-09-05T15:22:41.257Z,3.90
2017-09-05T15:25:08.859Z,3.27
2017-09-05T15:27:36.461Z,4.00
2017-09-05T15:30:04.131Z,3.87
2017-09-05T15:32:31.752Z,3.20
2017-09-05T15:34:59.390Z,3.70
2017-09-05T15:37:26.988Z,3.80
2017-09-05T15:39:54.590Z,4.40
2017-09-05T15:42:22.196Z,4.00
2017-09-05T15:44:49.840Z,3.20
2017-09-05T15:47:17.440Z,3.50
2017-09-05T15:49:45.047Z,3.80
2017-09-05T15:52:12.652Z,3.80
2017-09-05T15:54:40.252Z,3.23
2017-09-05T15:57:07.881Z,3.90
2017-09-05T15:59:35.520Z,3.50
2017-09-05T16:02:03.132Z,3.83
2017-09-05T16:04:30.732Z,3.77
2017-09-05T16:06:58.325Z,3.97
2017-09-05T16:09:26.375Z,3.70
2017-09-05T16:11:53.971Z,3.83
2017-09-05T16:14:22.916Z,3.90
2017-09-05T16:16:50.512Z,4.77
2017-09-05T16:19:18.119Z,4.23
2017-09-05T16:21:45.772Z,4.20
2017-09-05T16:24:13.463Z,3.20
2017-09-05T16:26:41.071Z,3.90
2017-09-05T16:29:08.818Z,4.47
2017-09-05T16:31:37.466Z,6.40
2017-09-05T16:34:05.402Z,5.00
2017-09-05T16:36:33.323Z,4.43
2017-09-05T16:39:01.990Z,4.43
2017-09-05T16:41:29.636Z,4.37
2017-09-05T16:43:57.241Z,5.33
2017-09-05T16:46:25.128Z,4.03
2017-09-05T16:48:53.058Z,4.20
2017-09-05T16:51:20.965Z,4.77
2017-09-05T16:53:48.889Z,4.40
2017-09-05T16:56:16.829Z,4.50
2017-09-05T16:58:44.505Z,4.00
2017-09-05T17:01:12.117Z,3.57
2017-09-05T17:03:39.991Z,4.23
2017-09-05T17:06:07.923Z,6.50
2017-09-05T17:08:35.576Z,5.00
2017-09-05T17:11:03.224Z,6.87
2017-09-05T17:13:30.828Z,6.33
2017-09-05T17:15:58.433Z,5.10
2017-09-05T17:18:26.272Z,5.53
2017-09-05T17:20:54.152Z,5.57
2017-09-05T17:23:21.885Z,5.80
2017-09-05T17:25:49.550Z,4.93
2017-09-05T17:28:17.240Z,5.10
2017-09-05T17:30:44.841Z,5.00
2017-09-05T17:33:12.443Z,4.90
2017-09-05T17:35:40.039Z,4.90
2017-09-05T17:38:07.649Z,5.20
2017-09-05T17:40:35.250Z,4.83
2017-09-05T17:43:02.849Z,5.30
2017-09-05T17:45:30.505Z,5.07
2017-09-05T17:47:58.110Z,5.63
2017-09-05T17:50:25.768Z,5.27
2017-09-05T17:52:53.369Z,4.63
2017-09-05T17:55:21.732Z,5.70
2017-09-05T17:57:49.341Z,7.23
2017-09-05T18:00:16.951Z,6.63
2017-09-05T18:02:44.601Z,6.57
2017-09-05T18:05:12.204Z,6.67
2017-09-05T18:07:40.617Z,7.60
2017-09-05T18:10:08.275Z,7.23
2017-09-05T18:12:37.574Z,6.73
2017-09-05T18:15:05.181Z,6.30
2017-09-05T18:17:36.336Z,6.80
2017-09-05T18:20:05.502Z,6.80
2017-09-05T18:22:33.461Z,6.40
2017-09-05T18:25:01.108Z,6.63
2017-09-05T18:27:28.727Z,7.50
2017-09-05T18:29:56.394Z,6.63
2017-09-05T18:32:23.998Z,7.60
2017-09-05T18:34:51.623Z,6.87
2017-09-05T18:37:19.230Z,7.67
2017-09-05T18:39:47.044Z,7.57
2017-09-05T18:42:14.708Z,7.07
2017-09-05T18:44:42.327Z,7.20
2017-09-05T18:47:09.967Z,6.70
2017-09-05T18:49:37.570Z,7.30
2017-09-05T18:52:05.333Z,7.57
2017-09-05T18:54:33.281Z,6.07
2017-09-05T18:57:01.332Z,7.13
2017-09-05T18:59:29.015Z,7.50
2017-09-05T19:01:56.662Z,7.10
2017-09-05T19:04:24.268Z,6.63
2017-09-05T19:06:52.038Z,7.40
2017-09-05T19:09:20.463Z,6.83
2017-09-05T19:11:48.660Z,7.30
2017-09-05T19:14:16.418Z,7.50
2017-09-05T19:16:44.058Z,9.07
2017-09-05T19:19:11.697Z,8.10
2017-09-05T19:21:39.344Z,8.33
2017-09-05T19:24:07.003Z,7.70
2017-09-05T19:26:34.632Z,8.30
2017-09-05T19:29:02.618Z,7.73
2017-09-05T19:31:30.324Z,8.80
2017-09-05T19:33:57.969Z,8.07
2017-09-05T19:36:25.761Z,9.33
2017-09-05T19:38:53.395Z,8.43
2017-09-05T19:41:21.608Z,6.87
2017-09-05T19:43:49.326Z,7.63
2017-09-05T19:46:17.030Z,9.20
2017-09-05T19:48:44.753Z,7.93
2017-09-05T19:51:12.478Z,7.80
2017-09-05T19:53:40.272Z,8.80
2017-09-05T19:56:08.219Z,7.90
2017-09-05T19:58:36.144Z,8.90
2017-09-05T20:01:04.475Z,7.90
2017-09-05T20:10:59.261Z,8.40
2017-09-05T20:13:40.079Z,8.23
2017-09-05T20:30:36.059Z,8.60
2017-09-05T20:33:03.776Z,7.63
2017-09-05T20:35:31.388Z,8.90
2017-09-05T20:37:58.998Z,7.93
2017-09-05T20:40:26.640Z,8.17
2017-09-05T20:42:54.249Z,8.30
2017-09-05T20:45:21.857Z,8.60
2017-09-05T20:47:49.500Z,9.10
2017-09-05T20:50:17.135Z,7.57
2017-09-05T20:52:44.789Z,8.00
2017-09-05T20:55:12.397Z,8.50
2017-09-05T20:57:40.005Z,8.10
2017-09-05T21:00:07.721Z,8.80
2017-09-05T21:02:35.332Z,8.20
2017-09-05T21:05:02.940Z,8.80
2017-09-05T21:07:30.547Z,7.90
2017-09-05T21:09:58.162Z,8.13
2017-09-05T21:12:25.817Z,9.10
2017-09-05T21:14:53.508Z,9.30
2017-09-05T21:17:21.142Z,8.23
2017-09-05T21:19:48.786Z,8.30
2017-09-05T21:22:16.398Z,8.37
2017-09-05T21:24:44.012Z,8.60
2017-09-05T21:27:11.622Z,8.73
2017-09-05T21:29:39.987Z,7.20
2017-09-05T21:32:07.589Z,7.87
2017-09-05T21:34:35.195Z,8.13
2017-09-05T21:37:02.849Z,8.93
2017-09-05T21:39:30.444Z,9.37
2017-09-05T21:41:58.057Z,8.63
2017-09-05T21:44:25.658Z,8.20
2017-09-05T21:46:53.261Z,7.20
2017-09-05T21:49:20.879Z,8.23
2017-09-05T21:51:48.480Z,8.37
2017-09-05T21:54:16.121Z,7.97
2017-09-05T21:56:43.731Z,8.20
2017-09-05T21:59:11.332Z,7.63
2017-09-05T22:01:38.928Z,7.93
2017-09-05T22:04:06.529Z,9.00
2017-09-05T22:06:34.133Z,9.30
2017-09-05T22:09:01.737Z,7.97
2017-09-05T22:11:29.340Z,8.30
2017-09-05T22:14:02.616Z,7.80
2017-09-05T22:16:35.758Z,7.97
2017-09-05T22:19:09.037Z,7.60
2017-09-05T22:21:36.635Z,7.83
2017-09-05T22:24:04.236Z,7.97
2017-09-05T22:26:37.500Z,8.30
2017-09-05T22:29:09.870Z,7.80
2017-09-05T22:31:37.472Z,7.80
2017-09-05T22:34:05.883Z,8.57
2017-09-05T22:36:33.476Z,7.97
2017-09-05T22:39:01.077Z,7.80
2017-09-05T22:41:28.677Z,7.53
2017-09-05T22:43:56.314Z,8.60
2017-09-05T22:46:23.924Z,7.00
2017-09-05T22:48:51.525Z,8.93
2017-09-05T22:51:19.121Z,7.60
2017-09-05T22:53:46.717Z,8.40
2017-09-05T22:56:14.367Z,7.83
2017-09-05T22:58:41.968Z,7.60
2017-09-05T23:01:09.571Z,8.23
2017-09-05T23:03:37.218Z,9.20
2017-09-05T23:06:04.826Z,8.27
2017-09-05T23:08:32.423Z,7.37
2017-09-05T23:11:00.077Z,7.70
2017-09-05T23:13:27.684Z,8.43
2017-09-05T23:15:55.299Z,7.47
2017-09-05T23:18:22.898Z,7.73
2017-09-05T23:20:50.497Z,7.90
2017-09-05T23:23:18.100Z,7.53
2017-09-05T23:25:45.696Z,7.53
2017-09-05T23:28:13.305Z,8.30
2017-09-05T23:30:40.915Z,8.00
2017-09-05T23:33:08.517Z,8.10
2017-09-05T23:35:36.161Z,8.13
2017-09-05T23:38:03.804Z,8.17
2017-09-05T23:40:31.414Z,8.20
2017-09-05T23:42:59.019Z,8.27
2017-09-05T23:45:26.621Z,7.70
2017-09-05T23:47:54.226Z,8.30
2017-09-05T23:50:21.834Z,8.33
2017-09-05T23:52:49.423Z,8.50
2017-09-05T23:55:17.059Z,7.60
2017-09-05T23:57:44.656Z,7.50
